3WI4 weather

Flying 'O' Airport
Wausau, Wisconsin, United States

Public forecast

Using degrees Fahrenheit for public forecast. Weather courtesy of forecast.io.

Closest aviation weather report (METAR) to Flying 'O' Airport

Closest report is Wausau Downtown Airport, 9.5 nm (17.7 km) W. Retrieved 2020/06/04 23:54 UTC (45 minutes ago):

KAUW 042354Z AUTO 28008KT 10SM CLR 27/11 A2976 RMK AO2 SLP076 T02670111 10278 20256 55002

Closest aviation forecast (TAF) to Flying 'O' Airport

Closest forecast is Wausau Downtown Airport, 9.5 nm (17.7 km) W. Retrieved 2020-06-05 00:40 UTC (0 seconds ago):

TAF KAUW 042338Z 0500/0524 VRB03KT P6SM SCT080 BKN120 FM050900 VRB03KT 6SM -TSRA SCT030 BKN050CB FM051200 30005KT 6SM -SHRA BKN035 FM051400 34007KT P6SM BKN040 FM051700 33007G15KT P6SM SCT035 FM051900 30009G17KT P6SM SKC AMD LTD TO CLD VIS AND WIND 0503/0511